x

Potomac, Md (44042) Weather Station

9:50am - Sat 25th Mar 2017 All times are EDT. -4 hours from GMT.

  • Wind
    11mph
  • Air Temp 54°f
  • Sea Pressure 1022.8mb
  • Potomac, Md
  • Potomac, Md

More Historic Weather Station data

Upgrade to MSW Pro to gain access to the past 30 days of data for over 8000 Wavebouys and Weather Stations around the globe.

Join Pro

Comparision Forecast

View Surf forecast
   
Sat 03/25 9:50am  -   -  11
mph
1022.8mb - 54f
9:40am  -   -  9 11 mph 1022.9mb - 54f
9:30am  -   -  9
mph
1022.9mb - 54f
9:20am  -   -  9 13 mph 1022.8mb - 55f
9:10am  -   -  11 16 mph 1022.8mb - 55f
9:00am 1.3ft 2s 9 13 mph 1022.8mb 46f 55f
8:50am  -   -  9 13 mph 1023mb - 54f
8:40am  -   -  11 13 mph 1022.9mb - 54f
8:30am  -   -  11 13 mph 1022.8mb - 54f
8:20am  -   -  11 13 mph 1022.7mb - 54f
8:10am  -   -  11 16 mph 1022.7mb - 54f
8:00am 1ft 2s 11 13 mph 1022.6mb 46f 53f
7:50am  -   -  9 11 mph 1022.7mb - 53f
7:40am  -   -  9 11 mph 1022.7mb - 52f
7:30am  -   -  9
mph
1022.6mb - 52f
7:20am  -   -  9
mph
1022.5mb - 52f
7:10am  -   -  9
mph
1022.3mb - 52f
7:00am 1ft 2s 9
mph
1022.3mb 46f 52f
6:50am  -   -  9
mph
1022.2mb - 53f
6:40am  -   -  7 9 mph 1022mb - 53f
6:30am  -   -  7 11 mph 1022mb - 54f
6:20am  -   -  11 13 mph 1021.9mb - 54f
6:10am  -   -  11 13 mph 1021.8mb - 55f
6:00am 1.3ft 2s 13 16 mph 1021.6mb 46f 55f
5:50am  -   -  13 16 mph 1021.5mb - 54f
5:40am  -   -  13 16 mph 1021.4mb - 54f
5:30am  -   -  13 16 mph 1021.3mb - 54f
5:20am  -   -  13 18 mph 1021.1mb - 55f
5:10am  -   -  13 16 mph 1021.2mb - 54f
5:00am 1.3ft 2s 13 16 mph 1021.1mb 46f 54f
4:50am  -   -  16 18 mph 1020.9mb - 54f
4:40am  -   -  16 18 mph 1020.9mb - 54f
4:30am  -   -  13 16 mph 1021mb - 54f
4:20am  -   -  13 16 mph 1021mb - 54f
4:10am  -   -  13 16 mph 1021.1mb - 54f
4:00am 0.7ft  -  13
mph
1021.3mb 46f 54f
3:50am  -   -  11 13 mph 1021.5mb - 53f
3:40am  -   -  11
mph
1021.7mb - 53f
3:30am  -   -  9 11 mph 1021.9mb - 53f
3:20am  -   -  9 11 mph 1022.1mb - 54f
3:10am  -   -  9 11 mph 1022.3mb - 53f
3:00am 0.7ft  -  9 11 mph 1022.3mb 45f 53f
2:50am  -   -  11
mph
1022.2mb - 54f
2:40am  -   -  11 13 mph 1022.1mb - 54f
2:30am  -   -  11 13 mph 1022.1mb - 53f
2:20am  -   -  11
mph
1022.4mb - 53f
2:10am  -   -  9 11 mph 1022.5mb - 54f
2:00am 1ft 2s 11
mph
1022.6mb 45f 53f
1:50am  -   -  9
mph
1022.7mb - 52f
1:40am  -   -  9
mph
1022.9mb - 53f
1:30am  -   -  7 9 mph 1022.9mb - 53f
1:20am  -   -  2 4 mph 1023mb - 53f
1:10am  -   -   -  2 mph 1023.1mb - 52f
1:00am 1ft 2s  -  2 mph 1023.2mb 45f 54f
12:50am  -   -  2 4 mph 1023.2mb - 55f
12:40am  -   -  4 7 mph 1023.2mb - 55f
12:30am  -   -  7
mph
1023.2mb - 55f
12:20am  -   -  4 7 mph 1023.3mb - 54f
12:10am  -   -  4 7 mph 1023.2mb - 55f
12:00am 1.6ft 3s 7 11 mph 1023.1mb 45f 56f
Fri 03/24 11:50pm  -   -  11 13 mph 1023mb - 56f
11:40pm  -   -  13 18 mph 1022.8mb - 57f
11:30pm  -   -  16 20 mph 1022.6mb - 57f
11:20pm  -   -  16 22 mph 1022.5mb - 57f
11:10pm  -   -  16 20 mph 1022.4mb - 57f
11:00pm 1.6ft 3s 16 20 mph 1022.3mb 45f 57f
10:50pm  -   -  16 20 mph 1022.2mb - 57f
10:40pm  -   -  16 18 mph 1022.1mb - 57f
10:30pm  -   -  16 18 mph 1022.2mb - 57f
10:20pm  -   -  13 18 mph 1022.2mb - 57f
10:10pm  -   -  16 20 mph 1022.2mb - 58f
10:00pm 1.6ft 3s 16 20 mph 1022.3mb 45f 58f
9:50pm  -   -  16 18 mph 1022.3mb - 58f
9:40pm  -   -  16 22 mph 1022.3mb - 58f
9:30pm  -   -  16 22 mph 1022.5mb - 58f
9:20pm  -   -  11 16 mph 1022.4mb - 58f
9:10pm  -   -  11 13 mph 1022.3mb - 57f
9:00pm 1ft 2s 11 13 mph 1022.2mb 46f 57f
8:50pm  -   -  13 16 mph 1022.2mb - 58f
8:40pm  -   -  11 13 mph 1022.2mb - 57f
8:30pm  -   -  9 13 mph 1022.2mb - 56f
8:20pm  -   -  9 11 mph 1022.1mb - 55f
8:10pm  -   -  9
mph
1022.2mb - 55f
8:00pm 1ft 2s 9
mph
1022.1mb 46f 55f
7:50pm  -   -  9 11 mph 1022.1mb - 56f
7:40pm  -   -  11
mph
1022.2mb - 57f
7:30pm  -   -  9 11 mph 1022.1mb - 56f
7:20pm  -   -  7 9 mph 1022.2mb - 55f
7:10pm  -   -  9
mph
1022.2mb - 56f
7:00pm 1.3ft 3s 9 11 mph 1022.3mb 46f 56f
6:50pm  -   -  9 11 mph 1022.3mb - 55f
6:40pm  -   -  9
mph
1022.5mb - 55f
6:30pm  -   -  9 13 mph 1022.5mb - 56f
6:20pm  -   -  9
mph
1022.5mb - 56f
6:10pm  -   -  9 11 mph 1022.7mb - 56f
6:00pm 1.6ft 3s 9 11 mph 1022.9mb 46f 56f
5:50pm  -   -  9 11 mph 1023.1mb - 56f
5:40pm  -   -  11 13 mph 1023.2mb - 57f
5:30pm  -   -  11 13 mph 1023.3mb - 57f
5:20pm  -   -  13 16 mph 1023.5mb - 58f
5:10pm  -   -  13 16 mph 1023.7mb - 58f
5:00pm 1.6ft 3s 11 13 mph 1023.8mb 46f 57f
4:50pm  -   -  11 16 mph 1023.9mb - 56f
4:40pm  -   -  9 13 mph 1024.2mb - 56f
4:30pm  -   -  9 11 mph 1024.5mb - 56f
4:20pm  -   -  11
mph
1024.7mb - 56f
4:10pm  -   -  13 16 mph 1024.9mb - 57f
4:00pm 1.6ft 3s 13 16 mph 1025.1mb 46f 56f
3:50pm  -   -  13 18 mph 1025.2mb - 56f
3:40pm  -   -  11 16 mph 1025.3mb - 55f
3:30pm  -   -  11 13 mph 1025.4mb - 55f
3:20pm  -   -  9 11 mph 1025.6mb - 54f
3:10pm  -   -  9 11 mph 1025.8mb - 52f
3:00pm 1.6ft 3s 4 7 mph 1025.9mb 46f 49f
2:50pm  -   -  4 7 mph 1026mb - 49f
2:40pm  -   -  4 9 mph 1026.2mb - 48f
2:30pm  -   -  4 7 mph 1026.5mb - 48f
2:20pm  -   -  7 9 mph 1026.7mb - 48f
2:10pm  -   -  7 11 mph 1026.8mb - 48f
2:00pm 1.3ft 3s 7 9 mph 1027mb 45f 50f
1:50pm  -   -  7 9 mph 1027.3mb - 51f
1:40pm  -   -  11 13 mph 1027.3mb - 51f
1:30pm  -   -  11 13 mph 1027.5mb - 51f
1:20pm  -   -  11 13 mph 1027.9mb - 50f
1:10pm  -   -  11 13 mph 1028.3mb - 49f
1:00pm 1ft 2s 9 13 mph 1028.6mb 45f 49f
12:50pm  -   -  9 13 mph 1029mb - 48f
12:40pm  -   -  11 16 mph 1029.3mb - 48f
12:30pm  -   -  11 13 mph 1029.9mb - 47f
12:20pm  -   -  9 11 mph 1030.5mb - 47f
12:10pm  -   -  7 9 mph 1031mb - 46f
12:00pm 1.3ft 2s 9 11 mph 1031mb 45f 46f
11:50am  -   -  11
mph
1031.2mb - 46f
11:40am  -   -  11 16 mph 1031.4mb - 46f
11:30am  -   -  13 16 mph 1031.4mb - 46f
11:20am  -   -  11 18 mph 1031.5mb - 45f
11:10am  -   -  9 11 mph 1031.7mb - 45f
11:00am 1.3ft 2s 9 11 mph 1032mb 45f 44f
10:50am  -   -  9 11 mph 1032.1mb - 44f
10:40am  -   -  9 11 mph 1032.2mb - 44f
10:30am  -   -  9 11 mph 1032.2mb - 44f
10:20am  -   -  11 13 mph 1032.4mb - 44f
10:10am  -   -  9 13 mph 1032.7mb - 44f
10:00am 1.6ft 3s 11 13 mph 1032.7mb 45f 43f
9:50am  -   -  11 13 mph 1032.3mb - 43f
9:40am  -   -  11 13 mph 1032mb - 43f
9:30am  -   -  11 13 mph 1032mb - 42f
9:20am  -   -  13 16 mph 1032mb - 42f
9:10am  -   -  16 18 mph 1032mb - 41f
9:00am 2ft 3s 16 18 mph 1032.1mb 45f 41f
8:50am  -   -  16 18 mph 1032.3mb - 41f
8:40am  -   -  16 18 mph 1032.4mb - 40f
8:30am  -   -  16 20 mph 1032.2mb - 40f
8:20am  -   -  16 18 mph 1032.2mb - 40f
8:10am  -   -  16 18 mph 1032.3mb - 39f
8:00am 1.3ft 2s 13 18 mph 1032.4mb 45f 39f
7:50am  -   -  16 18 mph 1032.3mb - 39f
7:40am  -   -  13 18 mph 1032.3mb - 39f
7:30am  -   -  13 16 mph 1032.2mb - 39f
7:20am  -   -  11 13 mph 1032.4mb - 38f
7:10am  -   -  11 16 mph 1032.6mb - 38f
7:00am 1.3ft 2s 11 16 mph 1032.6mb 45f 38f
6:50am  -   -  13 16 mph 1032.5mb - 38f
6:40am  -   -  11 16 mph 1032.5mb - 38f
6:30am  -   -  13 16 mph 1032.7mb - 39f
6:20am  -   -  13 16 mph 1032.6mb - 39f
6:10am  -   -  13 16 mph 1032.6mb - 39f
6:00am 1.3ft 3s 13 16 mph 1032.6mb 45f 39f
5:50am  -   -  13 16 mph 1032.6mb - 39f
5:40am  -   -  11 16 mph 1032.6mb - 39f
5:30am  -   -  9 13 mph 1032.6mb - 39f
5:20am  -   -  11 13 mph 1032.8mb - 39f
5:10am  -   -  13 16 mph 1032.9mb - 39f
5:00am 1.3ft 3s 11 13 mph 1033mb 45f 40f
4:50am  -   -  11 16 mph 1032.9mb - 40f
4:40am  -   -  11 13 mph 1032.9mb - 40f
4:30am  -   -  11 13 mph 1033mb - 40f
4:20am  -   -  11 13 mph 1033mb - 40f
4:10am  -   -  9 11 mph 1033mb - 40f
4:00am 1.6ft 3s 9 11 mph 1032.9mb 45f 40f
3:50am  -   -  11 16 mph 1033mb - 41f
3:40am  -   -  13 16 mph 1033mb - 41f
3:30am  -   -  13 16 mph 1033mb - 41f
3:20am  -   -  11 16 mph 1032.9mb - 41f
3:10am  -   -  11 13 mph 1033.1mb - 40f
3:00am 1.6ft 3s 9 11 mph 1033.4mb 45f 40f
2:50am  -   -  11 16 mph 1033.7mb - 41f
2:40am  -   -  16 18 mph 1033.8mb - 41f
2:30am  -   -  13 16 mph 1033.9mb - 41f
2:20am  -   -  13 18 mph 1033.9mb - 41f
2:10am  -   -  16 18 mph 1034.1mb - 41f
2:00am 1.6ft 3s 16 18 mph 1033.9mb 45f 41f
1:50am  -   -  16 18 mph 1033.7mb - 41f
1:40am  -   -  16 18 mph 1033.7mb - 41f
1:30am  -   -  16 20 mph 1033.8mb - 41f
1:20am  -   -  18 20 mph 1033.8mb - 41f
1:10am  -   -  18 22 mph 1033.8mb - 41f
1:00am 1.6ft 3s 18 20 mph 1034mb 45f 41f
12:50am  -   -  18 20 mph 1034.1mb - 41f
12:40am  -   -  18 22 mph 1034.2mb - 41f
12:30am  -   -  18 20 mph 1034.4mb - 41f
12:20am  -   -  18 20 mph 1034.7mb - 41f
12:10am  -   -  18 20 mph 1034.8mb - 41f
12:00am 1.3ft 2s 16 20 mph 1034.9mb 45f 41f
Thu 03/23 11:50pm  -   -  16 20 mph 1034.9mb - 41f
11:40pm  -   -  13 18 mph 1035.1mb - 41f
11:30pm  -   -  13 16 mph 1035mb - 41f
11:20pm  -   -  11 13 mph 1035.1mb - 40f
11:10pm  -   -  9 11 mph 1035.1mb - 40f
11:00pm 1ft 2s 9 13 mph 1035mb 45f 40f
10:50pm  -   -  11 13 mph 1034.7mb - 40f
10:40pm  -   -  13 16 mph 1034.5mb - 40f
10:30pm  -   -  13
mph
1034.6mb - 40f
10:20pm  -   -  13 16 mph 1034.5mb - 41f
10:10pm  -   -  13 16 mph 1034.5mb - 41f
10:00pm 1ft 2s 11 13 mph 1034.4mb 45f 41f
9:50pm  -   -  11 13 mph 1034.3mb - 40f
9:40pm  -   -  11 13 mph 1034.3mb - 40f
9:30pm  -   -  11 13 mph 1034.2mb - 40f
9:20pm  -   -  13 16 mph 1034.2mb - 40f
9:10pm  -   -  13 16 mph 1034.1mb - 40f
9:00pm 1ft 2s 11 13 mph 1034.1mb 45f 40f
8:50pm  -   -  11 13 mph 1034.2mb - 40f
8:40pm  -   -  11 13 mph 1034.3mb - 39f
8:30pm  -   -  11 13 mph 1034.3mb - 39f
8:20pm  -   -  11 16 mph 1034.4mb - 39f
8:10pm  -   -  11 13 mph 1034.4mb - 40f
8:00pm  -   -  11 13 mph 1034.3mb 45f 40f
7:50pm  -   -  11 13 mph 1034.3mb - 40f
7:40pm  -   -  11 13 mph 1034.3mb - 40f
7:30pm  -   -  11 13 mph 1034.2mb - 40f
7:20pm  -   -  11
mph
1034.2mb - 40f
7:10pm  -   -  11 13 mph 1034.2mb - 40f
7:00pm  -   -  11 13 mph 1034.3mb 46f 40f
6:50pm  -   -  11
mph
1034.3mb - 41f
6:40pm  -   -  9 11 mph 1034.4mb - 41f
6:30pm  -   -  9 11 mph 1034.5mb - 41f
6:20pm  -   -  9
mph
1034.5mb - 41f
6:10pm  -   -  7 9 mph 1034.4mb - 41f
6:00pm  -   -  7 9 mph 1034.5mb 45f 40f
5:50pm  -   -  7 9 mph 1034.6mb - 40f
5:40pm  -   -  7 9 mph 1034.6mb - 40f
5:30pm  -   -  9 11 mph 1034.6mb - 40f
5:20pm  -   -  9 11 mph 1034.6mb - 40f
5:10pm  -   -  9 11 mph 1034.6mb - 39f
5:00pm 0.3ft  -  11
mph
1034.7mb 45f 39f
4:50pm  -   -  9 11 mph 1034.9mb - 38f
4:40pm  -   -  9 13 mph 1035mb - 38f
4:30pm  -   -  9 11 mph 1035.1mb - 38f
4:20pm  -   -  9 11 mph 1035.2mb - 37f
4:10pm  -   -  9 11 mph 1035.3mb - 37f
4:00pm 0.3ft  -  7 9 mph 1035.4mb 46f 37f
3:50pm  -   -  7 9 mph 1035.5mb - 36f
3:40pm  -   -  7 9 mph 1035.6mb - 36f
3:30pm  -   -  7 9 mph 1035.7mb - 36f
3:20pm  -   -  7 9 mph 1035.9mb - 35f
3:10pm  -   -  7 9 mph 1036.1mb - 35f
3:00pm 0.3ft  -  4 7 mph 1036.2mb 46f 35f
2:50pm  -   -  4 7 mph 1036.3mb - 34f
2:40pm  -   -  2 7 mph 1036.5mb - 35f
2:30pm  -   -  2 4 mph 1036.7mb - 35f
2:20pm  -   -  2 4 mph 1036.8mb - 34f
2:10pm  -   -  4 7 mph 1036.9mb - 34f
2:00pm 0.3ft  -  4 9 mph 1037mb 46f 34f
1:50pm  -   -  4 7 mph 1037.1mb - 34f
1:40pm  -   -  4 7 mph 1037.1mb - 34f
1:30pm  -   -  4 7 mph 1037.2mb - 33f
1:20pm  -   -  4 7 mph 1037.3mb - 33f
1:10pm  -   -  4 7 mph 1037.4mb - 33f
1:00pm 0.3ft  -  7 9 mph 1037.4mb 45f 33f
12:50pm  -   -  7 9 mph 1037.5mb - 33f
12:40pm  -   -  7 9 mph 1037.7mb - 33f
12:30pm  -   -  7 11 mph 1037.7mb - 33f
12:20pm  -   -  7 11 mph 1037.8mb - 33f
12:10pm  -   -  9 11 mph 1037.9mb - 33f
12:00pm 0.7ft  -  7 11 mph 1037.9mb 45f 33f
11:50am  -   -  7 11 mph 1038mb - 32f
11:40am  -   -  7 11 mph 1038.1mb - 32f
11:30am  -   -  7 11 mph 1038.2mb - 33f
11:20am  -   -  7 11 mph 1038.2mb - 32f
11:10am  -   -  7 11 mph 1038.2mb - 32f
11:00am 0.7ft  -  9 13 mph 1038.3mb 44f 32f
10:50am  -   -  9 16 mph 1038.2mb - 32f
10:40am  -   -  9 13 mph 1038.2mb - 32f
10:30am  -   -  11 16 mph 1038.2mb - 32f
10:20am  -   -  11 13 mph 1038.1mb - 32f
10:10am  -   -  11 16 mph 1038.2mb - 32f
10:00am 0.7ft  -  13 18 mph 1037.9mb 44f 32f
9:50am  -   -  13 18 mph 1037.7mb - 31f
9:40am  -   -  13 16 mph 1037.6mb - 31f
9:30am  -   -  11 16 mph 1037.5mb - 31f
9:20am  -   -  11 16 mph 1037.5mb - 31f
9:10am  -   -  11 16 mph 1037.4mb - 31f
9:00am 1ft 2s 11 16 mph 1037.3mb 44f 31f
8:50am  -   -  13 18 mph 1037.2mb - 31f
8:40am  -   -  13 18 mph 1037.1mb - 31f
8:30am  -   -  16 18 mph 1037mb - 31f
8:20am  -   -  16 20 mph 1036.9mb - 32f
8:10am  -   -  16 18 mph 1036.7mb - 32f
8:00am 1ft 2s 16 20 mph 1036.5mb 44f 32f
7:50am  -   -  16 18 mph 1036.3mb - 32f
7:40am  -   -  16 20 mph 1036.1mb - 32f
7:30am  -   -  13 18 mph 1036mb - 32f
7:20am  -   -  16 20 mph 1035.9mb - 32f
7:10am  -   -  13 20 mph 1035.7mb - 32f
7:00am 0.7ft  -  13 18 mph 1035.5mb 44f 32f
6:50am  -   -  13 18 mph 1035.3mb - 32f
6:40am  -   -  13 18 mph 1035.1mb - 32f
6:30am  -   -  13 18 mph 1035mb - 32f
6:20am  -   -  13 16 mph 1034.9mb - 32f
6:10am  -   -  13 16 mph 1034.7mb - 33f
6:00am 1ft 2s 13 18 mph 1034.5mb 45f 33f
5:50am  -   -  13 18 mph 1034.4mb - 33f
5:40am  -   -  13 18 mph 1034.4mb - 33f
5:30am  -   -  13 18 mph 1034.2mb - 33f
5:20am  -   -  13 18 mph 1034mb - 33f
5:10am  -   -  13 18 mph 1033.8mb - 33f
5:00am 1ft 2s 13 18 mph 1033.8mb 45f 34f
4:50am  -   -  13 18 mph 1033.7mb - 34f
4:40am  -   -  13 18 mph 1033.6mb - 34f
4:30am  -   -  13 18 mph 1033.5mb - 34f
4:20am  -   -  13 18 mph 1033.4mb - 34f
4:10am  -   -  13 20 mph 1033.2mb - 34f
4:00am 1ft 2s 16 20 mph 1033.1mb 45f 34f
3:50am  -   -  16 20 mph 1033mb - 34f
3:40am  -   -  16 22 mph 1033.1mb - 34f
3:30am  -   -  13 18 mph 1032.9mb - 34f
3:20am  -   -  16 22 mph 1032.9mb - 35f
3:10am  -   -  16 20 mph 1032.8mb - 35f
3:00am 1ft 2s 16 20 mph 1032.7mb 45f 35f
2:50am  -   -  16 20 mph 1032.7mb - 35f
2:40am  -   -  16 20 mph 1032.5mb - 35f
2:30am  -   -  16 20 mph 1032.4mb - 35f
2:20am  -   -  16 22 mph 1032.3mb - 36f
2:10am  -   -  18 20 mph 1032.2mb - 36f
2:00am 1ft 2s 16 20 mph 1032.1mb 46f 36f
1:50am  -   -  18 20 mph 1032mb - 36f
1:40am  -   -  18 22 mph 1031.8mb - 36f
1:30am  -   -  18 22 mph 1031.6mb - 37f
1:20am  -   -  16 20 mph 1031.5mb - 37f
1:10am  -   -  16 22 mph 1031.5mb - 37f
1:00am 1ft 2s 16 20 mph 1031.4mb 46f 37f
12:50am  -   -  16 22 mph 1031.5mb - 37f
12:40am  -   -  16 18 mph 1031.5mb - 37f
12:30am  -   -  16 20 mph 1031.4mb - 38f
12:20am  -   -  18 20 mph 1031.4mb - 38f
12:10am  -   -  18 20 mph 1031.3mb - 38f
12:00am 1ft 2s 16 20 mph 1031.1mb 46f 38f
Wed 03/22 11:50pm  -   -  16 22 mph 1031.1mb - 39f
11:40pm  -   -  16 20 mph 1030.9mb - 39f
11:30pm  -   -  16 20 mph 1030.8mb - 39f
11:20pm  -   -  16 20 mph 1030.6mb - 40f
11:10pm  -   -  16 18 mph 1030.4mb - 40f
11:00pm 1ft 2s 13 18 mph 1030.4mb 45f 41f
10:50pm  -   -  11 16 mph 1030.3mb - 41f
10:40pm  -   -  11 13 mph 1030mb - 41f
10:30pm  -   -  11 16 mph 1030mb - 42f
10:20pm  -   -  11 13 mph 1029.9mb - 42f
10:10pm  -   -  11 13 mph 1029.7mb - 42f
10:00pm 1ft 3s 11 13 mph 1029.7mb 46f 42f
9:50pm  -   -  11 16 mph 1029.5mb - 42f
9:40pm  -   -  13 16 mph 1029.4mb - 42f
9:30pm  -   -  13 18 mph 1029.3mb - 43f
9:20pm  -   -  13 18 mph 1029mb - 43f
9:10pm  -   -  13 16 mph 1028.8mb - 43f
9:00pm 1ft 3s 13 16 mph 1028.6mb 46f 43f
8:50pm  -   -  11 13 mph 1028.4mb - 43f
8:40pm  -   -  11 16 mph 1028.1mb - 43f
8:30pm  -   -  11 13 mph 1027.9mb - 43f
8:20pm  -   -  13 16 mph 1027.6mb - 44f
8:10pm  -   -  13 18 mph 1027.5mb - 43f
8:00pm 1.3ft 3s 13 20 mph 1027.3mb 46f 43f
7:50pm  -   -  13 20 mph 1027.1mb - 44f
7:40pm  -   -  16 18 mph 1027.1mb - 44f
7:30pm  -   -  13 18 mph 1026.9mb - 44f
7:20pm  -   -  16 20 mph 1026.7mb - 44f
7:10pm  -   -  16 20 mph 1026.5mb - 44f
7:00pm 1.3ft 3s 16 20 mph 1026.4mb 46f 44f
6:50pm  -   -  16 20 mph 1026.1mb - 44f
6:40pm  -   -  16 20 mph 1025.8mb - 45f
6:30pm  -   -  16 22 mph 1025.5mb - 45f
6:20pm  -   -  18 22 mph 1025.3mb - 45f
6:10pm  -   -  18 25 mph 1025.3mb - 45f
6:00pm 1.6ft 3s 18 22 mph 1025mb 46f 45f
5:50pm  -   -  18 22 mph 1024.9mb - 45f
5:40pm  -   -  18 22 mph 1024.8mb - 45f
5:30pm  -   -  18 22 mph 1024.6mb - 45f
5:20pm  -   -  18 25 mph 1024.5mb - 45f
5:10pm  -   -  18 25 mph 1024.5mb - 45f
5:00pm 2ft 3s 20 27 mph 1024.5mb 46f 45f
4:50pm  -   -  20 25 mph 1024.3mb - 45f
4:40pm  -   -  18 22 mph 1024mb - 45f
4:30pm  -   -  16 25 mph 1023.9mb - 45f
4:20pm  -   -  18 25 mph 1023.8mb - 45f
4:10pm  -   -  20 25 mph 1023.7mb - 44f
4:00pm 2ft 3s 20 27 mph 1023.6mb 46f 44f
3:50pm  -   -  20 27 mph 1023.6mb - 44f
3:40pm  -   -  20 25 mph 1023.5mb - 44f
3:30pm  -   -  20 29 mph 1023.4mb - 45f
3:20pm  -   -  18 27 mph 1023.5mb - 45f
3:10pm  -   -  18 27 mph 1023.5mb - 45f
3:00pm 2.5ft 3s 18 22 mph 1023.4mb 46f 45f
2:50pm  -   -  18 25 mph 1023.2mb - 45f
2:40pm  -   -  20 27 mph 1023.2mb - 44f
2:30pm  -   -  20 27 mph 1023.2mb - 45f
2:20pm  -   -  20 25 mph 1023mb - 45f
2:10pm  -   -  20 25 mph 1023.1mb - 45f
2:00pm 2ft 3s 20 27 mph 1023.2mb 45f 44f
1:50pm  -   -  18 27 mph 1023.1mb - 44f
1:40pm  -   -  20 27 mph 1023.1mb - 45f
1:30pm  -   -  18 25 mph 1023mb - 44f
1:20pm  -   -  18 27 mph 1022.9mb - 44f
1:10pm  -   -  18 27 mph 1022.8mb - 44f
1:00pm 2.5ft 3s 16 25 mph 1022.8mb 45f 44f
12:50pm  -   -  18 25 mph 1022.8mb - 44f
12:40pm  -   -  20 27 mph 1022.6mb - 44f
12:30pm  -   -  18 27 mph 1022.5mb - 44f
12:20pm  -   -  20 27 mph 1022.5mb - 43f
12:10pm  -   -  18 25 mph 1022.2mb - 44f
12:00pm 2.5ft 3s 20 27 mph 1022.1mb 45f 44f
11:50am  -   -  20 29 mph 1022.1mb - 43f
11:40am  -   -  22 29 mph 1022mb - 43f
11:30am  -   -  20 27 mph 1021.8mb - 44f
11:20am  -   -  20 27 mph 1021.8mb - 44f
11:10am  -   -  20 27 mph 1021.6mb - 44f
11:00am 2.5ft 3s 22 27 mph 1021.5mb 45f 44f
10:50am  -   -  22 29 mph 1021.1mb - 44f
10:40am  -   -  22 27 mph 1020.8mb - 44f
10:30am  -   -  25 31 mph 1020.5mb - 44f
10:20am  -   -  22 29 mph 1020.3mb - 44f
10:10am  -   -  25 29 mph 1020mb - 45f
10:00am 3ft 3s 25 29 mph 1019.8mb 45f 45f
9:50am  -   -  25 31 mph 1019.5mb - 45f
9:40am  -   -  27 34 mph 1019.3mb - 45f
9:30am  -   -  29 36 mph 1019mb - 45f
9:20am  -   -  31 43 mph 1018.5mb - 46f
9:10am  -   -  27 38 mph 1018mb - 48f
9:00am 2.5ft 3s 18 27 mph 1017.6mb 45f 48f
8:50am  -   -  25 36 mph 1017.6mb - 49f
8:40am  -   -  22 29 mph 1017.4mb - 49f
8:30am  -   -  25 36 mph 1017.1mb - 49f
8:20am  -   -  18 27 mph 1016.7mb - 50f
8:10am  -   -  20 27 mph 1016.3mb - 50f
8:00am 1ft 2s 22 29 mph 1016.2mb 45f 51f
7:50am  -   -  22 31 mph 1015.9mb - 51f
7:40am  -   -  16 20 mph 1015.5mb - 51f
7:30am  -   -  18 25 mph 1015.1mb - 51f
7:20am  -   -  18 25 mph 1014.9mb - 52f
7:10am  -   -  16 27 mph 1014.5mb - 52f
7:00am 0.7ft  -  9 13 mph 1014.1mb 45f 51f
6:50am  -   -  9
mph
1013.9mb - 48f
6:40am  -   -  9
mph
1013.8mb - 48f
6:30am  -   -  9
mph
1013.7mb - 49f
6:20am  -   -  7 9 mph 1013.6mb - 49f
6:10am  -   -  7 9 mph 1013.5mb - 48f
6:00am  -   -  7 9 mph 1013.5mb 45f 48f
5:50am  -   -  7 9 mph 1013.5mb - 48f
5:40am  -   -  9 11 mph 1013.4mb - 49f
5:30am  -   -  9 11 mph 1013.3mb - 49f
5:20am  -   -  7 9 mph 1013mb - 49f
5:10am  -   -  7 9 mph 1012.8mb - 49f
5:00am  -   -  7 9 mph 1012.6mb 45f 49f
4:50am  -   -  9
mph
1012.5mb - 49f
4:40am  -   -  7 9 mph 1012.5mb - 49f
4:30am  -   -  9 11 mph 1012.4mb - 49f
4:20am  -   -  7 11 mph 1012.4mb - 48f
4:10am  -   -  7 9 mph 1012.3mb - 48f
4:00am  -   -  7 9 mph 1012.1mb 45f 47f
3:50am  -   -  4 7 mph 1012mb - 47f
3:40am  -   -  7 9 mph 1012.1mb - 48f
3:30am  -   -  4 7 mph 1012mb - 49f
3:20am  -   -  4 7 mph 1011.9mb - 48f
3:10am  -   -  4
mph
1011.8mb - 49f
3:00am  -   -  7 9 mph 1011.8mb 46f 48f
2:50am  -   -  7
mph
1011.9mb - 47f
2:40am  -   -  4 7 mph 1011.9mb - 48f
2:30am  -   -  4
mph
1011.9mb - 48f
2:20am  -   -  4 7 mph 1012mb - 48f
2:10am  -   -  4
mph
1012mb - 49f
2:00am  -   -  7
mph
1012.1mb 46f 48f
1:50am  -   -  7
mph
1012.1mb - 47f
1:40am  -   -  4 7 mph 1012.2mb - 48f
1:30am  -   -  4 7 mph 1012.2mb - 48f
1:20am  -   -  7 9 mph 1012.4mb - 48f
1:10am  -   -  7 11 mph 1012.4mb - 51f
1:00am 0.3ft  -  4
mph
1012.4mb 44f 53f
12:50am  -   -  4 9 mph 1012.3mb - 53f
12:40am  -   -  9 11 mph 1012.4mb - 53f
12:30am  -   -  9
mph
1012.6mb - 52f
12:20am  -   -  4 7 mph 1012.5mb - 51f
12:10am  -   -  4
mph
1012.6mb - 49f
12:00am 0.3ft  -  7
mph
1012.6mb 45f 48f
Tue 03/21 11:50pm  -   -  7
mph
1012.7mb - 48f
11:40pm  -   -  7
mph
1012.9mb - 48f
11:30pm  -   -  4
mph
1013mb - 47f
11:20pm  -   -  4
mph
1013.3mb - 47f
11:10pm  -   -  4
mph
1013.5mb - 47f
11:00pm  -   -  2 4 mph 1013.6mb 45f 46f
10:50pm  -   -   -  2 mph 1013.7mb - 46f
10:40pm  -   -  2
mph
1013.8mb - 46f
10:30pm  -   -  2
mph
1013.8mb - 46f
10:20pm  -   -  2
mph
1013.6mb - 46f
10:10pm  -   -  2 4 mph 1013.4mb - 46f
10:00pm  -   -  4
mph
1013.3mb 45f 47f
9:50pm  -   -  4
mph
1013.3mb - 47f
9:40pm  -   -  4 7 mph 1013.3mb - 47f
9:30pm  -   -  7
mph
1013.3mb - 47f
9:20pm  -   -  7
mph
1013.2mb - 47f
9:10pm  -   -  7
mph
1013.3mb - 48f
9:00pm  -   -  7
mph
1013.4mb 45f 48f
8:50pm  -   -  7
mph
1013.5mb - 47f
8:40pm  -   -  7
mph
1013.4mb - 47f
8:30pm  -   -  7
mph
1013.3mb - 47f
8:20pm  -   -  4 7 mph 1013.3mb - 47f
8:10pm  -   -  4
mph
1013.3mb - 46f
8:00pm  -   -  4
mph
1013.2mb 46f 46f
7:50pm  -   -  4
mph
1013.2mb - 46f
7:40pm  -   -  4
mph
1013mb - 47f
7:30pm  -   -  4
mph
1012.9mb - 47f
7:20pm  -   -  4
mph
1012.8mb - 48f
7:10pm  -   -  4
mph
1012.8mb - 49f
7:00pm  -   -  4
mph
1012.8mb 46f 49f
6:50pm  -   -  4 7 mph 1012.7mb - 49f
6:40pm  -   -  4
mph
1012.8mb - 49f
6:30pm  -   -  4
mph
1012.9mb - 49f
6:20pm  -   -  4
mph
1012.9mb - 49f
6:10pm  -   -  4
mph
1012.9mb - 49f
6:00pm 0.3ft  -  4
mph
1012.8mb 47f 49f
5:50pm  -   -  4
mph
1012.8mb - 49f
5:40pm  -   -  2 4 mph 1012.7mb - 49f
5:30pm  -   -  4
mph
1012.7mb - 49f
5:20pm  -   -  4
mph
1012.7mb - 49f
5:10pm  -   -  4
mph
1012.7mb - 50f
5:00pm  -   -  4 7 mph 1012.8mb 47f 50f
4:50pm  -   -  4 7 mph 1012.8mb - 50f
4:40pm  -   -  7 9 mph 1012.7mb - 50f
4:30pm  -   -  7
mph
1012.8mb - 50f
4:20pm  -   -  4 7 mph 1012.8mb - 50f
4:10pm  -   -  7 9 mph 1012.9mb - 50f
4:00pm 0.3ft  -  7 9 mph 1013mb 46f 49f
3:50pm  -   -  7 9 mph 1013.2mb - 49f
3:40pm  -   -  11
mph
1013.3mb - 49f
3:30pm  -   -  11 13 mph 1013.2mb - 49f
3:20pm  -   -  11 16 mph 1013.1mb - 49f
3:10pm  -   -  11 13 mph 1013mb - 49f
3:00pm  -   -  13 16 mph 1013.2mb 46f 49f
2:50pm  -   -  13 16 mph 1013.5mb - 49f
2:40pm  -   -  9 13 mph 1013.5mb - 49f
2:30pm  -   -  9 11 mph 1013.7mb - 49f